createdAt,value
2018-07-30T00:01:10.210Z,4.08
2018-07-30T00:03:38.340Z,4.10
2018-07-30T00:06:06.677Z,4.05
2018-07-30T00:08:35.057Z,4.10
2018-07-30T00:11:03.499Z,4.10
2018-07-30T00:13:31.610Z,4.20
2018-07-30T00:15:59.662Z,4.17
2018-07-30T00:18:27.737Z,3.83
2018-07-30T00:20:56.180Z,4.00
2018-07-30T00:23:24.886Z,4.00
2018-07-30T00:25:52.902Z,4.05
2018-07-30T00:28:21.585Z,3.95
2018-07-30T00:30:49.911Z,4.20
2018-07-30T00:33:18.019Z,4.17
2018-07-30T00:35:46.721Z,3.85
2018-07-30T00:38:15.406Z,4.20
2018-07-30T00:40:43.787Z,4.40
2018-07-30T00:43:12.125Z,4.42
2018-07-30T00:45:40.543Z,4.00
2018-07-30T00:48:08.943Z,4.20
2018-07-30T00:50:37.301Z,4.10
2018-07-30T00:53:05.991Z,3.90
2018-07-30T00:55:34.245Z,4.40
2018-07-30T00:58:02.273Z,4.25
2018-07-30T01:00:30.330Z,4.30
2018-07-30T01:02:58.885Z,3.90
2018-07-30T01:05:27.260Z,4.10
2018-07-30T01:07:55.349Z,5.10
2018-07-30T01:10:23.822Z,4.00
2018-07-30T01:12:52.069Z,4.28
2018-07-30T01:15:20.112Z,4.35
2018-07-30T01:17:49.061Z,4.67
2018-07-30T01:20:17.650Z,4.00
2018-07-30T01:22:46.330Z,4.37
2018-07-30T01:25:15.017Z,4.10
2018-07-30T01:27:43.738Z,4.50
2018-07-30T01:30:11.883Z,4.30
2018-07-30T01:32:40.234Z,4.37
2018-07-30T01:35:09.046Z,4.37
2018-07-30T01:37:37.583Z,4.23
2018-07-30T01:40:06.174Z,4.10
2018-07-30T01:42:34.793Z,4.33
2018-07-30T01:45:03.047Z,4.30
2018-07-30T01:47:31.315Z,3.83
2018-07-30T01:49:59.843Z,4.30
2018-07-30T01:52:28.400Z,4.60
2018-07-30T01:54:56.657Z,4.15
2018-07-30T01:57:24.974Z,4.40
2018-07-30T01:59:53.082Z,4.90
2018-07-30T02:02:21.525Z,4.80
2018-07-30T02:04:49.869Z,4.10
2018-07-30T02:07:18.307Z,4.60
2018-07-30T02:09:46.658Z,4.50
2018-07-30T02:12:14.712Z,4.70
2018-07-30T02:14:43.333Z,4.40
2018-07-30T02:17:11.477Z,4.77
2018-07-30T02:19:39.464Z,4.60
2018-07-30T02:22:07.522Z,4.70
2018-07-30T02:24:35.926Z,4.83
2018-07-30T02:27:04.292Z,4.65
2018-07-30T02:29:32.703Z,4.50
2018-07-30T02:32:01.053Z,5.37
2018-07-30T02:34:29.399Z,4.83
2018-07-30T02:36:57.603Z,4.57
2018-07-30T02:39:25.695Z,4.70
2018-07-30T02:41:54.033Z,4.70
2018-07-30T02:44:22.126Z,5.30
2018-07-30T02:46:50.393Z,5.10
2018-07-30T02:49:18.797Z,4.90
2018-07-30T02:51:46.890Z,5.28
2018-07-30T02:54:15.237Z,5.15
2018-07-30T02:56:43.481Z,5.30
2018-07-30T02:59:11.750Z,5.20
2018-07-30T03:01:39.885Z,5.33
2018-07-30T03:04:08.331Z,5.08
2018-07-30T03:06:36.730Z,5.40
2018-07-30T03:09:06.845Z,4.80
2018-07-30T03:11:35.226Z,5.58
2018-07-30T03:14:04.216Z,5.40
2018-07-30T03:16:32.564Z,5.42
2018-07-30T03:19:00.628Z,4.90
2018-07-30T03:21:28.652Z,6.95
2018-07-30T03:23:56.817Z,8.68
2018-07-30T03:26:24.849Z,6.67
2018-07-30T03:28:53.503Z,6.55
2018-07-30T03:31:22.262Z,6.12
2018-07-30T03:33:50.847Z,5.80
2018-07-30T03:36:18.999Z,6.03
2018-07-30T03:38:47.069Z,5.87
2018-07-30T03:41:15.458Z,5.33
2018-07-30T03:43:43.898Z,5.57
2018-07-30T03:46:12.014Z,5.50
2018-07-30T03:48:40.409Z,5.50
2018-07-30T03:51:08.480Z,5.50
2018-07-30T03:53:36.852Z,6.10
2018-07-30T03:56:05.546Z,5.57
2018-07-30T03:58:33.593Z,5.70
2018-07-30T04:01:01.865Z,5.20
2018-07-30T04:03:29.930Z,5.30
2018-07-30T04:05:58.358Z,5.50
2018-07-30T04:08:26.389Z,5.45
2018-07-30T04:10:54.426Z,5.70
2018-07-30T04:13:22.489Z,5.35
2018-07-30T04:15:50.558Z,5.78
2018-07-30T04:18:18.966Z,5.75
2018-07-30T04:20:47.025Z,5.50
2018-07-30T04:23:15.089Z,5.30
2018-07-30T04:25:43.417Z,5.57
2018-07-30T04:28:11.804Z,6.10
2018-07-30T04:30:39.869Z,5.33
2018-07-30T04:33:08.466Z,5.70
2018-07-30T04:35:36.989Z,5.60
2018-07-30T04:38:05.630Z,6.00
2018-07-30T04:40:33.678Z,6.23
2018-07-30T04:43:02.302Z,5.90
2018-07-30T04:45:30.398Z,5.70
2018-07-30T04:47:58.508Z,5.80
2018-07-30T04:50:26.918Z,5.70
2018-07-30T04:52:54.941Z,5.42
2018-07-30T04:55:23.041Z,6.00
2018-07-30T04:57:51.110Z,6.17
2018-07-30T05:00:19.489Z,5.90
2018-07-30T05:02:47.530Z,6.40
2018-07-30T05:05:15.901Z,5.97
2018-07-30T05:07:44.517Z,6.10
2018-07-30T05:10:12.562Z,6.00
2018-07-30T05:12:41.301Z,5.85
2018-07-30T05:15:09.366Z,6.42
2018-07-30T05:17:37.753Z,6.33
2018-07-30T05:20:06.522Z,6.40
2018-07-30T05:22:35.027Z,6.50
2018-07-30T05:25:03.239Z,6.00
2018-07-30T05:27:31.595Z,6.37
2018-07-30T05:30:00.678Z,6.13
2018-07-30T05:32:29.154Z,5.90
2018-07-30T05:34:57.329Z,6.03
2018-07-30T05:37:25.717Z,6.07
2018-07-30T05:39:53.845Z,6.17
2018-07-30T05:42:21.953Z,6.40
2018-07-30T05:44:49.985Z,6.00
2018-07-30T05:47:18.293Z,5.80
2018-07-30T05:49:46.690Z,5.78
2018-07-30T05:52:15.075Z,6.15
2018-07-30T05:54:43.442Z,6.63
2018-07-30T05:57:12.134Z,5.90
2018-07-30T05:59:40.261Z,6.20
2018-07-30T06:02:08.338Z,5.80
2018-07-30T06:04:36.373Z,6.03
2018-07-30T06:07:05.042Z,6.10
2018-07-30T06:09:33.522Z,6.00
2018-07-30T06:12:01.875Z,5.60
2018-07-30T06:14:29.953Z,5.60
2018-07-30T06:16:58.335Z,6.30
2018-07-30T06:19:26.726Z,5.90
2018-07-30T06:21:54.830Z,5.75
2018-07-30T06:24:23.522Z,6.00
2018-07-30T06:26:51.866Z,5.67
2018-07-30T06:29:20.350Z,5.80
2018-07-30T06:31:49.080Z,6.12
2018-07-30T06:34:17.106Z,5.80
2018-07-30T06:36:45.486Z,6.03
2018-07-30T06:39:13.813Z,5.83
2018-07-30T06:41:42.341Z,6.10
2018-07-30T06:44:10.926Z,6.00
2018-07-30T06:46:39.003Z,5.80
2018-07-30T06:49:07.122Z,5.70
2018-07-30T06:51:35.454Z,5.53
2018-07-30T06:54:03.805Z,5.70
2018-07-30T06:56:32.098Z,5.83
2018-07-30T06:59:00.486Z,5.83
2018-07-30T07:01:28.570Z,6.87
2018-07-30T07:03:56.922Z,6.15
2018-07-30T07:06:25.011Z,5.95
2018-07-30T07:08:53.397Z,5.90
2018-07-30T07:11:21.437Z,5.67
2018-07-30T07:13:49.952Z,5.25
2018-07-30T07:16:18.343Z,5.90
2018-07-30T07:18:46.422Z,5.70
2018-07-30T07:21:14.830Z,5.75
2018-07-30T07:23:42.825Z,6.00
2018-07-30T07:26:11.231Z,5.60
2018-07-30T07:28:39.785Z,6.05
2018-07-30T07:31:07.878Z,6.00
2018-07-30T07:33:36.004Z,5.60
2018-07-30T07:36:04.434Z,6.20
2018-07-30T07:38:32.538Z,5.80
2018-07-30T07:41:00.885Z,5.78
2018-07-30T07:43:29.007Z,5.92
2018-07-30T07:45:57.083Z,5.67
2018-07-30T07:48:25.377Z,5.67
2018-07-30T07:50:54.130Z,5.70
2018-07-30T07:53:22.372Z,5.47
2018-07-30T07:55:50.725Z,5.67
2018-07-30T07:58:18.794Z,5.90
2018-07-30T08:00:46.833Z,5.70
2018-07-30T08:03:15.577Z,6.00
2018-07-30T08:05:44.208Z,5.33
2018-07-30T08:08:12.320Z,5.65
2018-07-30T08:10:40.398Z,5.80
2018-07-30T08:13:08.730Z,5.93
2018-07-30T08:15:37.103Z,5.43
2018-07-30T08:18:05.206Z,6.10
2018-07-30T08:20:33.255Z,5.87
2018-07-30T08:23:01.698Z,5.58
2018-07-30T08:25:30.994Z,6.00
2018-07-30T08:27:59.584Z,5.87
2018-07-30T08:30:27.674Z,6.00
2018-07-30T08:32:56.062Z,5.70
2018-07-30T08:35:24.414Z,5.92
2018-07-30T08:37:52.893Z,5.50
2018-07-30T08:40:20.957Z,5.55
2018-07-30T08:42:49.666Z,6.00
2018-07-30T08:45:17.788Z,5.50
2018-07-30T08:47:45.891Z,5.20
2018-07-30T08:50:13.892Z,5.55
2018-07-30T08:52:42.225Z,5.53
2018-07-30T08:55:10.314Z,5.50
2018-07-30T08:57:38.337Z,5.50
2018-07-30T09:00:07.894Z,5.85
2018-07-30T09:02:36.272Z,5.70
2018-07-30T09:05:04.761Z,5.95
2018-07-30T09:07:33.842Z,5.50
2018-07-30T09:10:01.898Z,5.47
2018-07-30T09:12:30.447Z,5.83
2018-07-30T09:14:58.603Z,5.60
2018-07-30T09:17:26.768Z,6.80
2018-07-30T09:19:55.371Z,6.00
2018-07-30T09:22:23.938Z,6.97
2018-07-30T09:24:53.051Z,5.80
2018-07-30T09:27:21.415Z,5.40
2018-07-30T09:29:49.706Z,5.40
2018-07-30T09:32:18.361Z,5.50
2018-07-30T09:34:46.445Z,5.17
2018-07-30T09:37:15.017Z,5.43
2018-07-30T09:39:43.740Z,5.60
2018-07-30T09:42:11.826Z,5.60
2018-07-30T09:44:40.362Z,5.10
2018-07-30T09:47:08.350Z,4.70
2018-07-30T09:49:36.688Z,4.92
2018-07-30T09:52:04.771Z,5.00
2018-07-30T09:54:33.167Z,5.20
2018-07-30T09:57:01.220Z,5.10
2018-07-30T09:59:29.923Z,5.10
2018-07-30T10:01:58.416Z,4.97
2018-07-30T10:04:26.798Z,5.00
2018-07-30T10:06:54.797Z,5.10
2018-07-30T10:09:23.350Z,4.40
2018-07-30T10:11:51.929Z,4.30
2018-07-30T10:14:19.936Z,4.60
2018-07-30T10:16:48.370Z,4.20
2018-07-30T10:19:16.427Z,4.30
2018-07-30T10:21:44.518Z,4.37
2018-07-30T10:24:12.873Z,4.50
2018-07-30T10:26:40.887Z,4.08
2018-07-30T10:29:08.955Z,3.90
2018-07-30T10:31:37.054Z,4.13
2018-07-30T10:34:05.491Z,3.50
2018-07-30T10:36:34.006Z,3.60
2018-07-30T10:39:01.982Z,3.80
2018-07-30T10:41:30.108Z,3.70
2018-07-30T10:43:58.801Z,3.40
2018-07-30T10:46:26.989Z,3.52
2018-07-30T10:48:55.666Z,3.70
2018-07-30T10:51:24.378Z,3.50
2018-07-30T10:53:53.113Z,3.77
2018-07-30T10:56:21.387Z,3.95
2018-07-30T10:58:49.717Z,3.80
2018-07-30T11:01:17.806Z,4.00
2018-07-30T11:03:46.145Z,3.90
2018-07-30T11:06:14.747Z,4.00
2018-07-30T11:08:42.817Z,3.50
2018-07-30T11:11:10.874Z,3.85
2018-07-30T11:13:38.978Z,4.10
2018-07-30T11:16:07.022Z,4.20
2018-07-30T11:18:35.502Z,4.10
2018-07-30T11:21:03.881Z,4.03
2018-07-30T11:23:31.903Z,3.90
2018-07-30T11:25:59.995Z,3.70
2018-07-30T11:28:28.082Z,4.10
2018-07-30T11:30:56.174Z,3.70
2018-07-30T11:33:24.510Z,4.03
2018-07-30T11:38:38.407Z,3.45
2018-07-30T11:41:06.784Z,3.50
2018-07-30T11:43:35.491Z,3.40
2018-07-30T11:46:03.868Z,3.70
2018-07-30T11:48:32.196Z,3.70
2018-07-30T11:51:00.510Z,3.50
2018-07-30T11:53:29.091Z,3.33
2018-07-30T11:55:57.680Z,4.00
2018-07-30T11:58:26.027Z,3.65
2018-07-30T12:00:54.114Z,3.33
2018-07-30T12:03:22.443Z,3.47
2018-07-30T12:05:50.953Z,3.40
2018-07-30T12:08:19.378Z,3.52
2018-07-30T12:10:47.758Z,3.50
2018-07-30T12:13:15.789Z,3.70
2018-07-30T12:15:44.231Z,3.60
2018-07-30T12:18:12.755Z,3.85
2018-07-30T12:20:41.269Z,3.90
2018-07-30T12:23:09.679Z,3.30
2018-07-30T12:25:37.721Z,3.30
2018-07-30T12:28:05.825Z,3.10
2018-07-30T12:30:33.988Z,3.00
2018-07-30T12:33:02.040Z,3.40
2018-07-30T12:35:30.082Z,3.40
2018-07-30T12:37:58.477Z,3.62
2018-07-30T12:40:29.130Z,3.02
2018-07-30T12:42:57.840Z,3.30
2018-07-30T12:45:31.522Z,3.08
2018-07-30T12:47:59.889Z,3.50
2018-07-30T12:50:28.235Z,3.30
2018-07-30T12:52:56.258Z,3.50
2018-07-30T12:55:24.817Z,3.17
2018-07-30T12:57:53.074Z,3.25
2018-07-30T13:00:21.426Z,3.50
2018-07-30T13:02:49.512Z,3.05
2018-07-30T13:05:17.754Z,3.25
2018-07-30T13:07:46.010Z,2.87
2018-07-30T13:10:14.307Z,3.30
2018-07-30T13:12:42.394Z,2.83
2018-07-30T13:15:10.650Z,3.80
2018-07-30T13:17:38.993Z,3.50
2018-07-30T13:20:07.073Z,3.00
2018-07-30T13:22:35.174Z,2.90
2018-07-30T13:25:03.283Z,2.50
2018-07-30T13:27:31.399Z,2.30
2018-07-30T13:29:59.693Z,2.77
2018-07-30T13:32:27.937Z,3.70
2018-07-30T13:34:56.292Z,2.80
2018-07-30T13:37:24.406Z,2.80
2018-07-30T13:39:52.924Z,3.00
2018-07-30T13:42:21.049Z,2.77
2018-07-30T13:44:49.046Z,3.25
2018-07-30T13:47:17.318Z,2.58
2018-07-30T13:49:45.570Z,2.60
2018-07-30T13:52:13.635Z,2.98
2018-07-30T13:54:41.710Z,2.83
2018-07-30T13:57:10.111Z,2.72
2018-07-30T13:59:38.144Z,2.65
2018-07-30T14:02:06.519Z,2.80
2018-07-30T14:04:34.730Z,2.80
2018-07-30T14:07:02.821Z,2.75
2018-07-30T14:09:31.320Z,2.47
2018-07-30T14:11:59.671Z,2.60
2018-07-30T14:14:28.213Z,2.40
2018-07-30T14:16:56.269Z,3.20
2018-07-30T14:19:24.375Z,2.83
2018-07-30T14:21:52.657Z,2.30
2018-07-30T14:24:20.909Z,2.50
2018-07-30T14:26:49.533Z,2.67
2018-07-30T14:29:17.528Z,2.60
2018-07-30T14:31:45.770Z,2.95
2018-07-30T14:34:13.894Z,2.90
2018-07-30T14:36:42.445Z,3.00
2018-07-30T14:39:11.161Z,2.60
2018-07-30T14:41:40.006Z,2.80
2018-07-30T14:44:08.699Z,2.50
2018-07-30T14:46:36.834Z,2.60
2018-07-30T14:49:05.433Z,2.33
2018-07-30T14:51:34.079Z,2.33
2018-07-30T14:54:02.503Z,2.40
2018-07-30T14:56:31.382Z,2.20
2018-07-30T14:58:59.621Z,2.30
2018-07-30T15:01:27.965Z,2.30
2018-07-30T15:03:56.239Z,2.30
2018-07-30T15:06:24.825Z,2.60
2018-07-30T15:08:52.874Z,2.30
2018-07-30T15:11:21.589Z,2.02
2018-07-30T15:13:50.300Z,2.60
2018-07-30T15:16:19.172Z,3.02
2018-07-30T15:18:47.948Z,4.30
2018-07-30T15:21:15.991Z,2.50
2018-07-30T15:23:44.392Z,3.35
2018-07-30T15:26:12.749Z,5.07
2018-07-30T15:28:41.478Z,2.30
2018-07-30T15:31:09.982Z,2.30
2018-07-30T15:33:38.330Z,2.00
2018-07-30T15:36:06.567Z,2.40
2018-07-30T15:38:34.977Z,2.10
2018-07-30T15:41:03.435Z,2.10
2018-07-30T15:43:31.450Z,2.10
2018-07-30T15:45:59.986Z,2.10
2018-07-30T15:48:28.329Z,2.10
2018-07-30T15:50:56.675Z,2.12
2018-07-30T15:53:25.059Z,2.20
2018-07-30T15:55:53.656Z,2.10
2018-07-30T15:58:22.170Z,1.80
2018-07-30T16:00:50.342Z,2.25
2018-07-30T16:03:18.670Z,2.40
2018-07-30T16:05:46.971Z,2.00
2018-07-30T16:08:15.361Z,2.20
2018-07-30T16:10:43.382Z,2.20
2018-07-30T16:13:11.885Z,2.40
2018-07-30T16:15:40.464Z,2.30
2018-07-30T16:18:08.741Z,2.40
2018-07-30T16:20:36.733Z,2.60
2018-07-30T16:23:05.215Z,2.60
2018-07-30T16:25:33.365Z,2.30
2018-07-30T16:28:02.361Z,2.67
2018-07-30T16:30:31.060Z,5.65
2018-07-30T16:32:59.435Z,3.40
2018-07-30T16:35:27.602Z,2.67
2018-07-30T16:37:55.769Z,2.50
2018-07-30T16:40:24.024Z,2.40
2018-07-30T16:42:52.312Z,2.50
2018-07-30T16:45:20.723Z,2.47
2018-07-30T16:47:49.199Z,2.33
2018-07-30T16:50:17.369Z,2.40
2018-07-30T16:52:45.541Z,2.22
2018-07-30T16:55:14.033Z,2.85
2018-07-30T16:57:42.477Z,3.55
2018-07-30T17:00:12.120Z,3.90
2018-07-30T17:02:40.466Z,3.25
2018-07-30T17:05:09.405Z,3.40
2018-07-30T17:07:37.709Z,2.60
2018-07-30T17:10:05.943Z,2.37
2018-07-30T17:12:34.217Z,2.57
2018-07-30T17:15:02.359Z,2.60
2018-07-30T17:17:30.775Z,2.83
2018-07-30T17:19:59.039Z,2.80
2018-07-30T17:22:27.946Z,2.50
2018-07-30T17:24:56.018Z,2.80
2018-07-30T17:27:24.090Z,2.20
2018-07-30T17:29:52.392Z,2.30
2018-07-30T17:32:20.510Z,2.40
2018-07-30T17:34:49.019Z,2.40
2018-07-30T17:37:17.722Z,2.60
2018-07-30T17:39:46.094Z,2.40
2018-07-30T17:42:14.194Z,2.65
2018-07-30T17:44:42.640Z,2.60
2018-07-30T17:47:10.957Z,2.80
2018-07-30T17:49:39.061Z,2.60
2018-07-30T17:52:07.192Z,2.60
2018-07-30T17:54:35.620Z,3.00
2018-07-30T17:57:04.022Z,3.15
2018-07-30T17:59:32.106Z,3.02
2018-07-30T18:02:01.289Z,3.67
2018-07-30T18:04:29.402Z,3.30
2018-07-30T18:06:57.609Z,3.17
2018-07-30T18:09:25.986Z,3.17
2018-07-30T18:11:54.247Z,3.60
2018-07-30T18:14:22.594Z,3.75
2018-07-30T18:16:50.621Z,3.45
2018-07-30T18:19:18.924Z,3.15
2018-07-30T18:21:47.218Z,3.60
2018-07-30T18:24:15.534Z,3.30
2018-07-30T18:26:43.882Z,3.55
2018-07-30T18:29:11.981Z,3.70
2018-07-30T18:31:40.964Z,3.80
2018-07-30T18:34:09.223Z,3.40
2018-07-30T18:36:37.350Z,3.90
2018-07-30T18:39:06.393Z,3.47
2018-07-30T18:41:34.541Z,3.80
2018-07-30T18:44:02.835Z,3.65
2018-07-30T18:46:31.211Z,4.50
2018-07-30T18:48:59.718Z,4.77
2018-07-30T18:51:28.051Z,4.60
2018-07-30T18:53:56.353Z,10.25
2018-07-30T18:56:24.448Z,9.60
2018-07-30T18:58:53.979Z,9.70
2018-07-30T19:01:21.984Z,7.70
2018-07-30T19:03:50.357Z,9.08
2018-07-30T19:06:18.661Z,7.33
2018-07-30T19:08:47.206Z,5.70
2018-07-30T19:11:15.214Z,5.35
2018-07-30T19:13:43.360Z,4.60
2018-07-30T19:16:11.885Z,5.08
2018-07-30T19:18:40.501Z,4.65
2018-07-30T19:21:08.741Z,4.60
2018-07-30T19:23:37.165Z,4.80
2018-07-30T19:26:05.522Z,4.60
2018-07-30T19:28:33.589Z,4.55
2018-07-30T19:31:01.640Z,4.87
2018-07-30T19:33:29.982Z,4.40
2018-07-30T19:35:58.567Z,4.53
2018-07-30T19:38:26.963Z,4.20
2018-07-30T19:40:55.023Z,4.28
2018-07-30T19:43:23.149Z,4.75
2018-07-30T19:45:51.230Z,4.70
2018-07-30T19:48:19.659Z,4.10
2018-07-30T19:50:48.041Z,4.60
2018-07-30T19:53:16.734Z,4.30
2018-07-30T19:55:44.767Z,4.60
2018-07-30T19:58:12.920Z,4.10
2018-07-30T20:00:41.250Z,4.30
2018-07-30T20:03:09.359Z,4.50
2018-07-30T20:05:38.217Z,4.47
2018-07-30T20:08:06.590Z,4.10
2018-07-30T20:10:34.643Z,4.65
2018-07-30T20:13:02.673Z,4.42
2018-07-30T20:15:30.727Z,4.50
2018-07-30T20:17:59.239Z,4.30
2018-07-30T20:20:27.595Z,4.90
2018-07-30T20:22:56.042Z,5.50
2018-07-30T20:25:24.426Z,4.57
2018-07-30T20:27:52.475Z,7.97
2018-07-30T20:30:20.884Z,15.83
2018-07-30T20:32:49.207Z,20.37
2018-07-30T20:35:17.552Z,6.22
2018-07-30T20:37:46.422Z,4.65
2018-07-30T20:40:14.525Z,5.20
2018-07-30T20:42:42.983Z,4.57
2018-07-30T20:45:11.313Z,4.60
2018-07-30T20:47:39.942Z,4.90
2018-07-30T20:50:08.317Z,4.17
2018-07-30T20:52:36.655Z,5.50
2018-07-30T20:55:05.081Z,4.00
2018-07-30T20:57:33.454Z,4.50
2018-07-30T21:00:01.511Z,4.30
2018-07-30T21:02:29.916Z,4.65
2018-07-30T21:04:58.056Z,4.53
2018-07-30T21:07:26.458Z,4.33
2018-07-30T21:09:54.562Z,4.20
2018-07-30T21:12:22.928Z,4.30
2018-07-30T21:14:51.011Z,14.68
2018-07-30T21:17:19.351Z,21.23
2018-07-30T21:19:47.467Z,12.00
2018-07-30T21:22:15.466Z,7.95
2018-07-30T21:24:43.494Z,9.40
2018-07-30T21:27:11.893Z,6.10
2018-07-30T21:29:39.904Z,5.47
2018-07-30T21:32:08.650Z,4.20
2018-07-30T21:34:37.063Z,4.72
2018-07-30T21:37:05.298Z,4.28
2018-07-30T21:39:33.585Z,4.03
2018-07-30T21:42:01.763Z,4.33
2018-07-30T21:44:29.875Z,3.90
2018-07-30T21:46:58.165Z,3.80
2018-07-30T21:49:26.548Z,3.80
2018-07-30T21:51:55.170Z,3.90
2018-07-30T21:54:23.241Z,4.50
2018-07-30T21:56:51.319Z,4.03
2018-07-30T21:59:19.361Z,4.25
2018-07-30T22:01:47.360Z,4.33
2018-07-30T22:04:15.454Z,3.80
2018-07-30T22:06:44.164Z,4.00
2018-07-30T22:09:12.165Z,4.22
2018-07-30T22:11:40.550Z,3.90
2018-07-30T22:14:08.585Z,4.20
2018-07-30T22:16:36.919Z,3.87
2018-07-30T22:19:05.878Z,4.00
2018-07-30T22:21:34.526Z,3.87
2018-07-30T22:24:02.550Z,3.65
2018-07-30T22:26:30.917Z,3.80
2018-07-30T22:28:59.261Z,4.13
2018-07-30T22:31:27.978Z,4.00
2018-07-30T22:33:56.366Z,3.92
2018-07-30T22:36:24.739Z,3.80
2018-07-30T22:38:52.826Z,3.60
2018-07-30T22:41:21.116Z,4.17
2018-07-30T22:43:49.536Z,3.67
2018-07-30T22:46:17.941Z,3.70
2018-07-30T22:48:45.950Z,3.90
2018-07-30T22:51:14.595Z,4.50
2018-07-30T22:53:42.617Z,4.30
2018-07-30T22:56:10.637Z,4.40
2018-07-30T22:58:38.975Z,4.03
2018-07-30T23:01:07.232Z,3.90
2018-07-30T23:03:35.573Z,3.72
2018-07-30T23:06:03.963Z,3.90
2018-07-30T23:08:32.233Z,3.90
2018-07-30T23:11:00.917Z,3.40
2018-07-30T23:13:29.501Z,3.70
2018-07-30T23:15:57.874Z,3.70
2018-07-30T23:18:25.926Z,3.60
2018-07-30T23:20:54.729Z,3.60
2018-07-30T23:23:22.926Z,3.60
2018-07-30T23:25:51.193Z,3.87
2018-07-30T23:28:19.945Z,3.50
2018-07-30T23:30:48.039Z,3.90
2018-07-30T23:33:16.998Z,3.60
2018-07-30T23:35:45.400Z,4.05
2018-07-30T23:38:13.446Z,3.90
2018-07-30T23:40:41.878Z,4.00
2018-07-30T23:43:10.258Z,3.87
2018-07-30T23:45:39.045Z,3.50
2018-07-30T23:48:07.729Z,3.60
2018-07-30T23:50:36.110Z,3.80
2018-07-30T23:53:04.246Z,3.62
2018-07-30T23:55:32.669Z,3.40
2018-07-30T23:58:00.958Z,3.58
